sensor_id;sensor_type;location;lat;lon;timestamp;temperature;humidity
19561;DHT22;9927;47.792;10.616;2023-04-03T03:01:25;1.90;99.90
19561;DHT22;9927;47.792;10.616;2023-04-03T03:03:55;1.90;99.90
19561;DHT22;9927;47.792;10.616;2023-04-03T03:06:23;1.90;99.90
19561;DHT22;9927;47.792;10.616;2023-04-03T03:08:50;1.90;99.90
19561;DHT22;9927;47.792;10.616;2023-04-03T03:11:18;2.10;99.90
19561;DHT22;9927;47.792;10.616;2023-04-03T03:13:45;2.00;99.90
19561;DHT22;9927;47.792;10.616;2023-04-03T03:16:12;2.00;99.90
19561;DHT22;9927;47.792;10.616;2023-04-03T03:18:40;2.10;99.90
19561;DHT22;9927;47.792;10.616;2023-04-03T03:21:08;2.00;99.90
19561;DHT22;9927;47.792;10.616;2023-04-03T03:23:36;2.00;99.90
19561;DHT22;9927;47.792;10.616;2023-04-03T03:26:06;2.10;99.90
19561;DHT22;9927;47.792;10.616;2023-04-03T03:28:34;2.10;99.90
19561;DHT22;9927;47.792;10.616;2023-04-03T03:31:03;2.10;99.90
19561;DHT22;9927;47.792;10.616;2023-04-03T03:33:31;2.10;99.90
19561;DHT22;9927;47.792;10.616;2023-04-03T03:36:00;2.00;99.90
19561;DHT22;9927;47.792;10.616;2023-04-03T03:38:28;2.00;99.90
19561;DHT22;9927;47.792;10.616;2023-04-03T03:40:55;1.90;99.90
19561;DHT22;9927;47.792;10.616;2023-04-03T03:43:22;2.00;99.90
19561;DHT22;9927;47.792;10.616;2023-04-03T03:45:51;2.00;99.90
19561;DHT22;9927;47.792;10.616;2023-04-03T03:48:20;2.00;99.90
19561;DHT22;9927;47.792;10.616;2023-04-03T03:53:24;1.90;99.90
19561;DHT22;9927;47.792;10.616;2023-04-03T03:55:51;1.90;99.90
19561;DHT22;9927;47.792;10.616;2023-04-03T03:58:18;2.00;99.90
19561;DHT22;9927;47.792;10.616;2023-04-03T04:06:59;1.90;99.90
19561;DHT22;9927;47.792;10.616;2023-04-03T04:09:30;1.90;99.90
19561;DHT22;9927;47.792;10.616;2023-04-03T04:11:57;1.80;99.90
19561;DHT22;9927;47.792;10.616;2023-04-03T04:14:24;1.80;99.90
19561;DHT22;9927;47.792;10.616;2023-04-03T04:16:52;1.80;99.90
19561;DHT22;9927;47.792;10.616;2023-04-03T04:19:19;1.90;99.90
19561;DHT22;9927;47.792;10.616;2023-04-03T04:21:46;1.90;99.90
19561;DHT22;9927;47.792;10.616;2023-04-03T04:24:13;1.90;99.90
19561;DHT22;9927;47.792;10.616;2023-04-03T04:26:41;1.90;99.90
19561;DHT22;9927;47.792;10.616;2023-04-03T04:29:09;2.00;99.90
19561;DHT22;9927;47.792;10.616;2023-04-03T04:31:37;1.90;99.90
19561;DHT22;9927;47.792;10.616;2023-04-03T04:34:04;1.90;99.90
19561;DHT22;9927;47.792;10.616;2023-04-03T04:36:31;1.90;99.90
19561;DHT22;9927;47.792;10.616;2023-04-03T04:38:58;1.90;99.90
19561;DHT22;9927;47.792;10.616;2023-04-03T04:41:26;2.00;99.90
19561;DHT22;9927;47.792;10.616;2023-04-03T04:43:53;2.00;99.90
19561;DHT22;9927;47.792;10.616;2023-04-03T04:46:21;1.90;99.90
19561;DHT22;9927;47.792;10.616;2023-04-03T04:48:49;1.90;99.90
19561;DHT22;9927;47.792;10.616;2023-04-03T04:51:16;1.80;99.90
19561;DHT22;9927;47.792;10.616;2023-04-03T04:53:43;1.90;99.90
19561;DHT22;9927;47.792;10.616;2023-04-03T04:56:11;1.90;99.90
19561;DHT22;9927;47.792;10.616;2023-04-03T04:58:38;1.90;99.90
19561;DHT22;9927;47.792;10.616;2023-04-03T05:01:08;1.90;99.90
19561;DHT22;9927;47.792;10.616;2023-04-03T05:03:36;1.90;99.90
19561;DHT22;9927;47.792;10.616;2023-04-03T05:06:03;1.90;99.90
19561;DHT22;9927;47.792;10.616;2023-04-03T05:08:31;2.00;99.90
19561;DHT22;9927;47.792;10.616;2023-04-03T05:10:59;2.10;99.90
19561;DHT22;9927;47.792;10.616;2023-04-03T05:13:26;2.10;99.90
19561;DHT22;9927;47.792;10.616;2023-04-03T05:15:53;2.20;99.90
19561;DHT22;9927;47.792;10.616;2023-04-03T05:18:21;2.10;99.90
19561;DHT22;9927;47.792;10.616;2023-04-03T05:20:49;2.20;99.90
19561;DHT22;9927;47.792;10.616;2023-04-03T05:23:17;2.20;99.90
19561;DHT22;9927;47.792;10.616;2023-04-03T05:25:44;2.20;99.90
19561;DHT22;9927;47.792;10.616;2023-04-03T05:28:13;2.20;99.90
19561;DHT22;9927;47.792;10.616;2023-04-03T05:30:41;2.10;99.90
19561;DHT22;9927;47.792;10.616;2023-04-03T05:33:08;2.10;99.90
19561;DHT22;9927;47.792;10.616;2023-04-03T05:35:37;2.20;99.90
19561;DHT22;9927;47.792;10.616;2023-04-03T05:38:08;2.30;99.90
19561;DHT22;9927;47.792;10.616;2023-04-03T05:40:36;2.40;99.90
19561;DHT22;9927;47.792;10.616;2023-04-03T05:43:04;2.40;99.90
19561;DHT22;9927;47.792;10.616;2023-04-03T05:45:31;2.60;99.90
19561;DHT22;9927;47.792;10.616;2023-04-03T05:47:59;2.60;99.90
19561;DHT22;9927;47.792;10.616;2023-04-03T05:52:56;2.70;99.90
19561;DHT22;9927;47.792;10.616;2023-04-03T05:55:25;2.70;99.90
19561;DHT22;9927;47.792;10.616;2023-04-03T05:57:52;2.70;99.90
19561;DHT22;9927;47.792;10.616;2023-04-03T06:00:20;2.70;99.90
19561;DHT22;9927;47.792;10.616;2023-04-03T06:02:48;2.60;99.90
19561;DHT22;9927;47.792;10.616;2023-04-03T06:05:15;2.60;99.90
19561;DHT22;9927;47.792;10.616;2023-04-03T06:07:42;2.60;99.90
19561;DHT22;9927;47.792;10.616;2023-04-03T06:10:12;2.60;99.90
19561;DHT22;9927;47.792;10.616;2023-04-03T06:12:40;2.50;99.90
19561;DHT22;9927;47.792;10.616;2023-04-03T06:15:08;2.50;99.90
19561;DHT22;9927;47.792;10.616;2023-04-03T06:17:37;2.50;99.90
19561;DHT22;9927;47.792;10.616;2023-04-03T06:20:05;2.60;99.90
19561;DHT22;9927;47.792;10.616;2023-04-03T06:22:33;2.70;99.90
19561;DHT22;9927;47.792;10.616;2023-04-03T06:25:00;2.70;99.90
19561;DHT22;9927;47.792;10.616;2023-04-03T06:27:27;2.70;99.90
19561;DHT22;9927;47.792;10.616;2023-04-03T06:29:55;2.60;99.90
19561;DHT22;9927;47.792;10.616;2023-04-03T06:32:22;2.60;99.90
19561;DHT22;9927;47.792;10.616;2023-04-03T06:34:50;2.60;99.90
19561;DHT22;9927;47.792;10.616;2023-04-03T06:37:19;2.60;99.90
19561;DHT22;9927;47.792;10.616;2023-04-03T06:39:47;2.60;99.90
19561;DHT22;9927;47.792;10.616;2023-04-03T06:42:14;2.60;99.90
19561;DHT22;9927;47.792;10.616;2023-04-03T06:44:42;2.70;99.90
19561;DHT22;9927;47.792;10.616;2023-04-03T06:47:12;2.70;99.90
19561;DHT22;9927;47.792;10.616;2023-04-03T06:49:40;2.70;99.90
19561;DHT22;9927;47.792;10.616;2023-04-03T06:52:08;2.70;99.90
19561;DHT22;9927;47.792;10.616;2023-04-03T06:54:36;2.70;99.90
19561;DHT22;9927;47.792;10.616;2023-04-03T06:57:04;2.80;99.90
19561;DHT22;9927;47.792;10.616;2023-04-03T06:59:31;2.70;99.90
19561;DHT22;9927;47.792;10.616;2023-04-03T07:01:58;2.80;99.90
19561;DHT22;9927;47.792;10.616;2023-04-03T07:04:26;2.80;99.90
19561;DHT22;9927;47.792;10.616;2023-04-03T07:06:54;2.90;99.90
19561;DHT22;9927;47.792;10.616;2023-04-03T07:09:21;2.90;99.90
19561;DHT22;9927;47.792;10.616;2023-04-03T07:11:48;2.80;99.90
19561;DHT22;9927;47.792;10.616;2023-04-03T07:14:16;2.90;99.90
19561;DHT22;9927;47.792;10.616;2023-04-03T07:16:43;2.90;99.90
19561;DHT22;9927;47.792;10.616;2023-04-03T07:19:10;3.00;99.90
19561;DHT22;9927;47.792;10.616;2023-04-03T07:21:38;3.00;99.90
19561;DHT22;9927;47.792;10.616;2023-04-03T07:24:06;3.00;99.90
19561;DHT22;9927;47.792;10.616;2023-04-03T07:26:37;3.00;99.90
19561;DHT22;9927;47.792;10.616;2023-04-03T07:29:04;2.90;99.90
19561;DHT22;9927;47.792;10.616;2023-04-03T07:31:31;2.90;99.90
19561;DHT22;9927;47.792;10.616;2023-04-03T07:34:01;3.00;99.90
19561;DHT22;9927;47.792;10.616;2023-04-03T07:36:28;3.10;99.90
19561;DHT22;9927;47.792;10.616;2023-04-03T07:38:56;2.90;99.90
19561;DHT22;9927;47.792;10.616;2023-04-03T07:41:23;3.20;99.90
19561;DHT22;9927;47.792;10.616;2023-04-03T07:43:50;3.10;99.90
19561;DHT22;9927;47.792;10.616;2023-04-03T07:46:19;3.20;99.90
19561;DHT22;9927;47.792;10.616;2023-04-03T07:48:47;3.30;99.90
19561;DHT22;9927;47.792;10.616;2023-04-03T07:51:15;3.30;99.90
19561;DHT22;9927;47.792;10.616;2023-04-03T07:53:43;3.30;99.90
19561;DHT22;9927;47.792;10.616;2023-04-03T07:56:10;3.20;99.90
19561;DHT22;9927;47.792;10.616;2023-04-03T07:58:37;3.30;99.90
19561;DHT22;9927;47.792;10.616;2023-04-03T08:01:05;3.30;99.90
19561;DHT22;9927;47.792;10.616;2023-04-03T08:03:33;3.30;99.90
19561;DHT22;9927;47.792;10.616;2023-04-03T08:06:06;3.40;99.90
19561;DHT22;9927;47.792;10.616;2023-04-03T08:08:41;3.60;99.90
19561;DHT22;9927;47.792;10.616;2023-04-03T08:11:10;3.70;99.90
19561;DHT22;9927;47.792;10.616;2023-04-03T08:13:38;3.70;99.90
19561;DHT22;9927;47.792;10.616;2023-04-03T08:16:14;3.80;99.90
19561;DHT22;9927;47.792;10.616;2023-04-03T08:18:43;3.70;99.90
19561;DHT22;9927;47.792;10.616;2023-04-03T08:21:11;3.60;99.90
19561;DHT22;9927;47.792;10.616;2023-04-03T08:23:39;3.70;99.90
19561;DHT22;9927;47.792;10.616;2023-04-03T08:26:16;3.50;99.90
19561;DHT22;9927;47.792;10.616;2023-04-03T08:28:43;3.60;99.90
19561;DHT22;9927;47.792;10.616;2023-04-03T08:31:14;3.70;99.90
19561;DHT22;9927;47.792;10.616;2023-04-03T08:33:42;3.80;99.90
19561;DHT22;9927;47.792;10.616;2023-04-03T08:36:29;3.90;99.90
19561;DHT22;9927;47.792;10.616;2023-04-03T08:38:57;3.90;99.90
19561;DHT22;9927;47.792;10.616;2023-04-03T08:49:43;4.10;99.90
19561;DHT22;9927;47.792;10.616;2023-04-03T08:52:20;4.10;99.90
19561;DHT22;9927;47.792;10.616;2023-04-03T08:54:51;4.20;99.90
19561;DHT22;9927;47.792;10.616;2023-04-03T08:57:31;4.10;99.90
19561;DHT22;9927;47.792;10.616;2023-04-03T09:00:05;4.10;99.90
19561;DHT22;9927;47.792;10.616;2023-04-03T09:02:47;4.30;99.90
19561;DHT22;9927;47.792;10.616;2023-04-03T09:05:20;4.60;99.90
19561;DHT22;9927;47.792;10.616;2023-04-03T09:07:59;4.80;99.90
19561;DHT22;9927;47.792;10.616;2023-04-03T09:10:29;5.10;99.90
19561;DHT22;9927;47.792;10.616;2023-04-03T09:15:36;5.50;99.90
19561;DHT22;9927;47.792;10.616;2023-04-03T09:18:16;5.90;99.90
19561;DHT22;9927;47.792;10.616;2023-04-03T09:23:28;5.70;99.90
19561;DHT22;9927;47.792;10.616;2023-04-03T09:26:05;5.80;99.90
19561;DHT22;9927;47.792;10.616;2023-04-03T09:28:39;5.80;99.90
19561;DHT22;9927;47.792;10.616;2023-04-03T09:31:21;5.80;99.90
19561;DHT22;9927;47.792;10.616;2023-04-03T09:33:52;5.70;99.90
19561;DHT22;9927;47.792;10.616;2023-04-03T09:36:40;5.70;99.90
19561;DHT22;9927;47.792;10.616;2023-04-03T09:39:19;5.80;99.90
19561;DHT22;9927;47.792;10.616;2023-04-03T09:42:02;6.00;99.90
19561;DHT22;9927;47.792;10.616;2023-04-03T09:44:38;6.20;99.90
19561;DHT22;9927;47.792;10.616;2023-04-03T09:47:34;6.20;99.90
19561;DHT22;9927;47.792;10.616;2023-04-03T09:50:20;6.20;99.90
19561;DHT22;9927;47.792;10.616;2023-04-03T09:52:50;6.30;99.90
19561;DHT22;9927;47.792;10.616;2023-04-03T09:55:21;6.50;99.90
19561;DHT22;9927;47.792;10.616;2023-04-03T09:57:59;6.50;99.90
19561;DHT22;9927;47.792;10.616;2023-04-03T10:00:37;6.40;99.90
19561;DHT22;9927;47.792;10.616;2023-04-03T10:03:24;6.40;99.90
19561;DHT22;9927;47.792;10.616;2023-04-03T10:05:52;6.50;99.90
19561;DHT22;9927;47.792;10.616;2023-04-03T10:08:25;6.40;99.90
19561;DHT22;9927;47.792;10.616;2023-04-03T10:11:16;6.60;99.90
19561;DHT22;9927;47.792;10.616;2023-04-03T10:13:52;6.70;99.90
19561;DHT22;9927;47.792;10.616;2023-04-03T10:16:25;6.20;99.90
19561;DHT22;9927;47.792;10.616;2023-04-03T10:36:09;7.10;99.90
19561;DHT22;9927;47.792;10.616;2023-04-03T10:39:04;7.20;99.90
19561;DHT22;9927;47.792;10.616;2023-04-03T10:47:40;6.60;99.90
19561;DHT22;9927;47.792;10.616;2023-04-03T10:55:58;6.40;99.90
19561;DHT22;9927;47.792;10.616;2023-04-03T10:58:36;6.40;99.90
19561;DHT22;9927;47.792;10.616;2023-04-03T11:01:14;6.60;99.90
19561;DHT22;9927;47.792;10.616;2023-04-03T11:03:46;7.10;99.90
19561;DHT22;9927;47.792;10.616;2023-04-03T11:06:16;7.00;99.90
19561;DHT22;9927;47.792;10.616;2023-04-03T11:11:34;6.60;99.90
19561;DHT22;9927;47.792;10.616;2023-04-03T11:14:26;6.40;99.90
19561;DHT22;9927;47.792;10.616;2023-04-03T11:27:55;5.70;99.90
19561;DHT22;9927;47.792;10.616;2023-04-03T11:30:33;5.60;99.90
19561;DHT22;9927;47.792;10.616;2023-04-03T11:35:49;5.40;99.90
19561;DHT22;9927;47.792;10.616;2023-04-03T11:38:27;5.20;99.90
19561;DHT22;9927;47.792;10.616;2023-04-03T11:40:57;5.10;99.90
19561;DHT22;9927;47.792;10.616;2023-04-03T11:43:32;5.30;99.90
19561;DHT22;9927;47.792;10.616;2023-04-03T11:46:05;5.30;99.90
19561;DHT22;9927;47.792;10.616;2023-04-03T11:53:43;5.80;99.90
19561;DHT22;9927;47.792;10.616;2023-04-03T12:01:56;5.60;99.90
19561;DHT22;9927;47.792;10.616;2023-04-03T12:04:26;5.60;99.90
19561;DHT22;9927;47.792;10.616;2023-04-03T12:07:18;5.60;99.90
19561;DHT22;9927;47.792;10.616;2023-04-03T12:12:35;5.70;99.90
19561;DHT22;9927;47.792;10.616;2023-04-03T12:17:45;5.90;99.90
19561;DHT22;9927;47.792;10.616;2023-04-03T12:23:28;6.20;99.90
19561;DHT22;9927;47.792;10.616;2023-04-03T12:26:05;6.50;99.90
19561;DHT22;9927;47.792;10.616;2023-04-03T12:28:39;6.50;99.90
19561;DHT22;9927;47.792;10.616;2023-04-03T12:31:10;6.40;99.90
19561;DHT22;9927;47.792;10.616;2023-04-03T12:36:40;6.70;99.90
19561;DHT22;9927;47.792;10.616;2023-04-03T12:44:40;6.40;99.90
19561;DHT22;9927;47.792;10.616;2023-04-03T12:47:34;6.30;99.90
19561;DHT22;9927;47.792;10.616;2023-04-03T12:50:13;6.20;99.90
19561;DHT22;9927;47.792;10.616;2023-04-03T12:52:47;6.40;99.90
19561;DHT22;9927;47.792;10.616;2023-04-03T12:55:19;6.40;99.90
19561;DHT22;9927;47.792;10.616;2023-04-03T12:58:19;6.30;99.90
19561;DHT22;9927;47.792;10.616;2023-04-03T13:01:02;6.40;99.90
19561;DHT22;9927;47.792;10.616;2023-04-03T13:03:31;6.10;99.90
19561;DHT22;9927;47.792;10.616;2023-04-03T13:06:23;5.80;99.90
19561;DHT22;9927;47.792;10.616;2023-04-03T13:08:57;5.80;99.90
19561;DHT22;9927;47.792;10.616;2023-04-03T13:11:36;5.90;99.90
19561;DHT22;9927;47.792;10.616;2023-04-03T13:14:15;6.00;99.90
19561;DHT22;9927;47.792;10.616;2023-04-03T13:16:53;6.10;99.90
19561;DHT22;9927;47.792;10.616;2023-04-03T13:19:24;6.20;99.90
19561;DHT22;9927;47.792;10.616;2023-04-03T13:22:02;6.00;99.90
19561;DHT22;9927;47.792;10.616;2023-04-03T13:24:33;5.60;99.90
19561;DHT22;9927;47.792;10.616;2023-04-03T13:27:02;5.60;99.90
19561;DHT22;9927;47.792;10.616;2023-04-03T13:29:53;5.30;99.90
19561;DHT22;9927;47.792;10.616;2023-04-03T13:32:44;4.90;99.90
19561;DHT22;9927;47.792;10.616;2023-04-03T13:35:37;4.90;99.90
19561;DHT22;9927;47.792;10.616;2023-04-03T13:40:53;5.10;99.90
19561;DHT22;9927;47.792;10.616;2023-04-03T13:43:29;5.10;99.90
19561;DHT22;9927;47.792;10.616;2023-04-03T13:48:25;5.30;99.90
19561;DHT22;9927;47.792;10.616;2023-04-03T13:51:03;5.20;99.90
19561;DHT22;9927;47.792;10.616;2023-04-03T13:53:33;5.50;99.90
19561;DHT22;9927;47.792;10.616;2023-04-03T13:56:15;5.50;99.90
19561;DHT22;9927;47.792;10.616;2023-04-03T14:04:26;5.40;99.90
19561;DHT22;9927;47.792;10.616;2023-04-03T14:06:55;5.50;99.90
19561;DHT22;9927;47.792;10.616;2023-04-03T14:09:25;5.50;99.90
19561;DHT22;9927;47.792;10.616;2023-04-03T14:11:59;5.50;99.90
19561;DHT22;9927;47.792;10.616;2023-04-03T14:14:30;5.50;99.90
19561;DHT22;9927;47.792;10.616;2023-04-03T14:17:00;5.40;99.90
19561;DHT22;9927;47.792;10.616;2023-04-03T14:19:35;5.40;99.90
19561;DHT22;9927;47.792;10.616;2023-04-03T14:24:50;5.50;99.90
19561;DHT22;9927;47.792;10.616;2023-04-03T14:27:32;5.60;99.90
19561;DHT22;9927;47.792;10.616;2023-04-03T14:30:00;5.70;99.90
19561;DHT22;9927;47.792;10.616;2023-04-03T14:32:28;5.70;99.90
19561;DHT22;9927;47.792;10.616;2023-04-03T14:34:55;5.80;99.90
19561;DHT22;9927;47.792;10.616;2023-04-03T14:37:29;5.70;99.90
19561;DHT22;9927;47.792;10.616;2023-04-03T14:39:58;5.40;99.90
19561;DHT22;9927;47.792;10.616;2023-04-03T14:42:44;5.40;99.90
19561;DHT22;9927;47.792;10.616;2023-04-03T14:45:15;5.50;99.90
19561;DHT22;9927;47.792;10.616;2023-04-03T14:47:46;5.60;99.90
19561;DHT22;9927;47.792;10.616;2023-04-03T14:50:17;5.50;99.90
19561;DHT22;9927;47.792;10.616;2023-04-03T14:52:45;5.50;99.90
19561;DHT22;9927;47.792;10.616;2023-04-03T14:55:15;5.50;99.90
19561;DHT22;9927;47.792;10.616;2023-04-03T14:57:43;5.50;99.90
19561;DHT22;9927;47.792;10.616;2023-04-03T15:00:16;5.80;99.90
19561;DHT22;9927;47.792;10.616;2023-04-03T15:02:44;5.70;99.90
19561;DHT22;9927;47.792;10.616;2023-04-03T15:05:14;5.60;99.90
19561;DHT22;9927;47.792;10.616;2023-04-03T15:07:45;5.50;99.90
19561;DHT22;9927;47.792;10.616;2023-04-03T15:12:44;5.60;99.90
19561;DHT22;9927;47.792;10.616;2023-04-03T15:15:13;5.60;99.90
19561;DHT22;9927;47.792;10.616;2023-04-03T15:17:41;5.50;99.90
19561;DHT22;9927;47.792;10.616;2023-04-03T15:20:17;5.60;99.90
19561;DHT22;9927;47.792;10.616;2023-04-03T15:22:45;5.70;99.90
19561;DHT22;9927;47.792;10.616;2023-04-03T15:25:12;5.60;99.90
19561;DHT22;9927;47.792;10.616;2023-04-03T15:27:40;5.50;99.90
19561;DHT22;9927;47.792;10.616;2023-04-03T15:30:13;5.60;99.90
19561;DHT22;9927;47.792;10.616;2023-04-03T15:35:27;5.60;99.90
19561;DHT22;9927;47.792;10.616;2023-04-03T15:37:54;5.70;99.90
19561;DHT22;9927;47.792;10.616;2023-04-03T15:40:21;5.80;99.90
19561;DHT22;9927;47.792;10.616;2023-04-03T15:42:49;5.80;99.90
19561;DHT22;9927;47.792;10.616;2023-04-03T15:45:19;5.90;99.90
19561;DHT22;9927;47.792;10.616;2023-04-03T15:47:46;5.80;99.90
19561;DHT22;9927;47.792;10.616;2023-04-03T15:50:13;6.00;99.90
19561;DHT22;9927;47.792;10.616;2023-04-03T15:52:41;6.10;99.90
19561;DHT22;9927;47.792;10.616;2023-04-03T15:55:08;6.30;99.90
19561;DHT22;9927;47.792;10.616;2023-04-03T15:57:36;6.20;99.90
19561;DHT22;9927;47.792;10.616;2023-04-03T16:00:15;6.20;99.90
19561;DHT22;9927;47.792;10.616;2023-04-03T16:02:44;6.10;99.90
19561;DHT22;9927;47.792;10.616;2023-04-03T16:05:13;6.00;99.90
19561;DHT22;9927;47.792;10.616;2023-04-03T16:07:42;6.00;99.90
19561;DHT22;9927;47.792;10.616;2023-04-03T16:10:13;5.90;99.90
19561;DHT22;9927;47.792;10.616;2023-04-03T16:12:43;5.80;99.90
19561;DHT22;9927;47.792;10.616;2023-04-03T16:15:11;5.90;99.90
19561;DHT22;9927;47.792;10.616;2023-04-03T16:17:40;5.80;99.90
19561;DHT22;9927;47.792;10.616;2023-04-03T16:20:12;5.80;99.90
19561;DHT22;9927;47.792;10.616;2023-04-03T16:22:40;5.70;99.90
19561;DHT22;9927;47.792;10.616;2023-04-03T16:25:08;5.60;99.90
19561;DHT22;9927;47.792;10.616;2023-04-03T16:27:36;5.70;99.90
19561;DHT22;9927;47.792;10.616;2023-04-03T16:30:23;5.80;99.90
19561;DHT22;9927;47.792;10.616;2023-04-03T16:32:50;5.70;99.90
19561;DHT22;9927;47.792;10.616;2023-04-03T16:35:18;5.70;99.90
19561;DHT22;9927;47.792;10.616;2023-04-03T16:37:45;5.50;99.90
19561;DHT22;9927;47.792;10.616;2023-04-03T16:40:12;5.30;99.90
19561;DHT22;9927;47.792;10.616;2023-04-03T16:42:40;5.20;99.90
19561;DHT22;9927;47.792;10.616;2023-04-03T16:45:08;5.20;99.90
19561;DHT22;9927;47.792;10.616;2023-04-03T16:47:35;5.20;99.90
19561;DHT22;9927;47.792;10.616;2023-04-03T16:50:21;5.20;99.90
19561;DHT22;9927;47.792;10.616;2023-04-03T16:52:48;5.10;99.90
19561;DHT22;9927;47.792;10.616;2023-04-03T16:55:16;5.10;99.90
19561;DHT22;9927;47.792;10.616;2023-04-03T16:57:43;5.10;99.90
19561;DHT22;9927;47.792;10.616;2023-04-03T17:00:11;5.00;99.90
19561;DHT22;9927;47.792;10.616;2023-04-03T17:02:39;5.00;99.90
19561;DHT22;9927;47.792;10.616;2023-04-03T17:05:07;5.00;99.90
19561;DHT22;9927;47.792;10.616;2023-04-03T17:07:53;5.00;99.90
19561;DHT22;9927;47.792;10.616;2023-04-03T17:10:39;5.00;99.90
19561;DHT22;9927;47.792;10.616;2023-04-03T17:13:07;5.00;99.90
19561;DHT22;9927;47.792;10.616;2023-04-03T17:15:35;4.90;99.90
19561;DHT22;9927;47.792;10.616;2023-04-03T17:18:02;5.00;99.90
19561;DHT22;9927;47.792;10.616;2023-04-03T17:20:30;4.90;99.90
19561;DHT22;9927;47.792;10.616;2023-04-03T17:22:57;4.80;99.90
19561;DHT22;9927;47.792;10.616;2023-04-03T17:25:24;4.70;99.90
19561;DHT22;9927;47.792;10.616;2023-04-03T17:27:52;4.70;99.90
19561;DHT22;9927;47.792;10.616;2023-04-03T17:30:19;4.60;99.90
19561;DHT22;9927;47.792;10.616;2023-04-03T17:33:05;4.60;99.90
19561;DHT22;9927;47.792;10.616;2023-04-03T17:35:51;4.70;99.90
19561;DHT22;9927;47.792;10.616;2023-04-03T17:38:37;4.80;99.90
19561;DHT22;9927;47.792;10.616;2023-04-03T17:41:23;4.80;99.90
19561;DHT22;9927;47.792;10.616;2023-04-03T17:44:09;4.70;99.90
19561;DHT22;9927;47.792;10.616;2023-04-03T17:46:55;4.60;99.90
19561;DHT22;9927;47.792;10.616;2023-04-03T17:49:41;4.60;99.90
19561;DHT22;9927;47.792;10.616;2023-04-03T17:52:14;4.50;99.90
19561;DHT22;9927;47.792;10.616;2023-04-03T17:54:42;4.40;99.90
19561;DHT22;9927;47.792;10.616;2023-04-03T17:57:09;4.40;99.90
19561;DHT22;9927;47.792;10.616;2023-04-03T17:59:36;4.40;99.90
19561;DHT22;9927;47.792;10.616;2023-04-03T18:02:04;4.30;99.90
19561;DHT22;9927;47.792;10.616;2023-04-03T18:04:31;4.20;99.90
19561;DHT22;9927;47.792;10.616;2023-04-03T18:07:00;4.10;99.90
19561;DHT22;9927;47.792;10.616;2023-04-03T18:09:33;4.10;99.90
19561;DHT22;9927;47.792;10.616;2023-04-03T18:12:03;4.00;99.90
19561;DHT22;9927;47.792;10.616;2023-04-03T18:14:32;4.00;99.90
19561;DHT22;9927;47.792;10.616;2023-04-03T18:16:59;4.00;99.90
19561;DHT22;9927;47.792;10.616;2023-04-03T18:19:27;4.00;99.90
19561;DHT22;9927;47.792;10.616;2023-04-03T18:21:58;4.10;99.90
19561;DHT22;9927;47.792;10.616;2023-04-03T18:24:27;4.00;99.90
19561;DHT22;9927;47.792;10.616;2023-04-03T18:26:59;4.00;99.90
19561;DHT22;9927;47.792;10.616;2023-04-03T18:29:31;4.00;99.90
19561;DHT22;9927;47.792;10.616;2023-04-03T18:32:00;4.00;99.90
19561;DHT22;9927;47.792;10.616;2023-04-03T18:34:30;3.90;99.90
19561;DHT22;9927;47.792;10.616;2023-04-03T18:36:58;3.90;99.90
19561;DHT22;9927;47.792;10.616;2023-04-03T18:39:26;3.90;99.90
19561;DHT22;9927;47.792;10.616;2023-04-03T18:41:55;3.90;99.90
19561;DHT22;9927;47.792;10.616;2023-04-03T18:44:24;3.90;99.90
19561;DHT22;9927;47.792;10.616;2023-04-03T18:46:52;3.80;99.90
19561;DHT22;9927;47.792;10.616;2023-04-03T18:51:48;3.80;99.90
19561;DHT22;9927;47.792;10.616;2023-04-03T18:54:15;3.70;99.90
19561;DHT22;9927;47.792;10.616;2023-04-03T18:56:43;3.50;99.90
19561;DHT22;9927;47.792;10.616;2023-04-03T18:59:11;3.40;99.90
19561;DHT22;9927;47.792;10.616;2023-04-03T19:01:38;3.40;99.90
19561;DHT22;9927;47.792;10.616;2023-04-03T19:04:07;3.20;99.90
19561;DHT22;9927;47.792;10.616;2023-04-03T19:06:35;3.10;99.90
19561;DHT22;9927;47.792;10.616;2023-04-03T19:09:05;3.10;99.90
19561;DHT22;9927;47.792;10.616;2023-04-03T19:11:33;3.10;99.90
19561;DHT22;9927;47.792;10.616;2023-04-03T19:14:00;3.00;99.90
19561;DHT22;9927;47.792;10.616;2023-04-03T19:16:41;3.00;99.90
19561;DHT22;9927;47.792;10.616;2023-04-03T19:19:08;2.90;99.90
19561;DHT22;9927;47.792;10.616;2023-04-03T19:21:36;2.90;99.90
19561;DHT22;9927;47.792;10.616;2023-04-03T19:24:11;2.80;99.90
19561;DHT22;9927;47.792;10.616;2023-04-03T19:26:40;2.80;99.90
19561;DHT22;9927;47.792;10.616;2023-04-03T19:29:08;2.70;99.90
19561;DHT22;9927;47.792;10.616;2023-04-03T19:31:37;2.70;99.90
19561;DHT22;9927;47.792;10.616;2023-04-03T19:34:06;2.60;99.90
19561;DHT22;9927;47.792;10.616;2023-04-03T19:36:34;2.60;99.90
19561;DHT22;9927;47.792;10.616;2023-04-03T19:39:03;2.70;99.90
19561;DHT22;9927;47.792;10.616;2023-04-03T19:41:31;2.50;99.90
19561;DHT22;9927;47.792;10.616;2023-04-03T19:44:00;2.50;99.90
19561;DHT22;9927;47.792;10.616;2023-04-03T19:46:28;2.50;99.90
19561;DHT22;9927;47.792;10.616;2023-04-03T19:51:24;2.40;99.90
19561;DHT22;9927;47.792;10.616;2023-04-03T19:53:52;2.30;99.90
19561;DHT22;9927;47.792;10.616;2023-04-03T19:56:19;2.30;99.90
19561;DHT22;9927;47.792;10.616;2023-04-03T19:58:48;2.20;99.90
19561;DHT22;9927;47.792;10.616;2023-04-03T20:01:21;2.30;99.90
19561;DHT22;9927;47.792;10.616;2023-04-03T20:03:50;2.20;99.90
19561;DHT22;9927;47.792;10.616;2023-04-03T20:06:18;2.20;99.90
19561;DHT22;9927;47.792;10.616;2023-04-03T20:08:45;2.20;99.90
19561;DHT22;9927;47.792;10.616;2023-04-03T20:11:12;2.10;99.90
19561;DHT22;9927;47.792;10.616;2023-04-03T20:13:40;2.10;99.90
19561;DHT22;9927;47.792;10.616;2023-04-03T20:16:08;2.00;99.90
19561;DHT22;9927;47.792;10.616;2023-04-03T20:18:36;2.00;99.90
19561;DHT22;9927;47.792;10.616;2023-04-03T20:21:05;2.00;99.90
19561;DHT22;9927;47.792;10.616;2023-04-03T20:23:33;2.10;99.90
19561;DHT22;9927;47.792;10.616;2023-04-03T20:26:04;2.00;99.90
19561;DHT22;9927;47.792;10.616;2023-04-03T20:28:41;2.00;99.90
19561;DHT22;9927;47.792;10.616;2023-04-03T20:31:09;1.90;99.90
19561;DHT22;9927;47.792;10.616;2023-04-03T20:33:39;1.80;99.90
19561;DHT22;9927;47.792;10.616;2023-04-03T20:36:06;1.80;99.90
19561;DHT22;9927;47.792;10.616;2023-04-03T20:38:34;1.80;99.90
19561;DHT22;9927;47.792;10.616;2023-04-03T20:41:01;1.80;99.90
19561;DHT22;9927;47.792;10.616;2023-04-03T20:43:29;1.80;99.90
19561;DHT22;9927;47.792;10.616;2023-04-03T20:46:00;1.80;99.90
19561;DHT22;9927;47.792;10.616;2023-04-03T20:48:29;1.90;99.90
19561;DHT22;9927;47.792;10.616;2023-04-03T20:50:57;1.90;99.90
19561;DHT22;9927;47.792;10.616;2023-04-03T20:53:25;1.90;99.90
19561;DHT22;9927;47.792;10.616;2023-04-03T20:55:57;1.90;99.90
19561;DHT22;9927;47.792;10.616;2023-04-03T20:58:27;1.80;99.90
